X  Kiinni Metar Aviation säätiedot     LYNI Nis Airport
Lämpötila
3°C Lämpötila
-1°C Kastepiste
75% Kosteus



Tuuli
7 MPH
11 KM/T
3 M/S
6 KTS



340°
PPL
Nykyiset olosuhteet

Enimmäkseen pilvistä Enimmäkseen pilvistä
Paine 1018.92 (hPa) - 30.09 (inHg)
Näkyvyys 6.2 (maili) - 10 (km)
Lentokenttä
Lentokentän koodi LYNI

Sijainti: Nis Airport
Etäisyys: 63 (mi)

Metar:
LYNI 012230Z 34006KT 9999 SCT060 03/M01 Q1019 NOSIG

Aika: 01-02-2023 23:30 CET